Aputiteeq

KL  EN  DA
ASIAQ
Weather Now GREENLAND SURVEY
Updated [WGT/WGST] Temperature [°C] Wind [m/s] Air pressure [hPa] Relative humidity [%] Precipitation [mm]
Present Wind chill Speed Max
25.02 07:00-15,1-20,22,1 ⇘2,6100355n/a
25.02 06:00-14,5-21,73,6 ⇓4,6100248n/a
25.02 05:00-14,9-23,24,6 ⇘5,7100250n/a
25.02 04:00-14,3-22,04,1 ⇓4,6100248n/a
25.02 03:00-14,7-21,33,1 ⇘3,6100150n/a
25.02 02:00-14,1-20,63,1 ⇙4,1100153n/a
25.02 01:00-14,7-21,93,6 ⇘4,1100059n/a
25.02 00:00-14,4-22,14,1 ⇘4,6100055n/a
24.02 23:00-13,9-20,93,6 ⇙4,6100057n/a
24.02 22:00-14,60,01,0 ⇙2,699956n/a
24.02 21:00-13,3-23,78,2 ⇙10,399862n/a
24.02 20:00-13,4-24,910,3 ⇙13,499859n/a
24.02 19:00-13,5-26,112,9 ⇙16,599754n/a
24.02 18:00-13,4-21,34,6 ⇙6,299753n/a
24.02 17:00-12,3-17,02,1 ⇙4,199649n/a
24.02 16:00-12,0-15,41,5 ⇓4,699648n/a
24.02 15:00-10,80,01,0 ⇘3,699650n/a
24.02 14:00-10,4-16,73,6 ⇙4,699653n/a
24.02 13:00-9,20,01,0 ⇙2,699656n/a
24.02 12:00-9,1-15,13,6 ⇓5,799658n/a
24.02 11:00-9,8-18,97,7 ⇓12,999658n/a
24.02 10:00-9,8-18,97,7 ⇓12,499758n/a
24.02 09:00-10,0-19,78,8 ⇓14,999758n/a
24.02 08:00-9,9-17,85,7 ⇓9,899757n/a
24.02 07:00-10,3-20,18,8 ⇓12,499752n/a
Position: (67.78166666666,-32.2841666666)

[Back]